Time;durP1;ratioP1;P1;durP2;ratioP2;P2;SDS_P1;SDS_P2;PMS_P1;PMS_P2;Temp;Humidity;BMP_temperature;BMP_pressure;BME280_temperature;BME280_humidity;BME280_pressure;Samples;Min_cycle;Max_cycle;Signal;HPM_P1;HPM_P2
2021/12/08 00:01:52;;;;;;;31.47;4.20;;;;;;;;;;5011099;28;20235;-48
2021/12/08 00:04:17;;;;;;;55.07;7.03;;;-0.50;99.90;;;;;;5010528;28;20704;-49
2021/12/08 00:06:43;;;;;;;37.63;4.87;;;-0.10;99.90;;;;;;5010081;28;20308;-49
2021/12/08 00:09:27;;;;;;;36.20;4.77;;;;;;;;;;5009873;28;20224;-49
2021/12/08 00:14:37;;;;;;;33.07;4.33;;;0.10;99.90;;;;;;5009916;28;20234;-49
2021/12/08 00:17:03;;;;;;;33.87;4.47;;;;;;;;;;5010937;28;20181;-47
2021/12/08 00:19:30;;;;;;;31.00;4.20;;;;;;;;;;5010188;28;20213;-49
2021/12/08 00:21:56;;;;;;;35.23;4.67;;;;;;;;;;5010120;28;20581;-48
2021/12/08 00:24:22;;;;;;;36.23;4.83;;;-0.30;99.90;;;;;;5009997;28;20228;-49
2021/12/08 00:26:47;;;;;;;29.47;4.00;;;-0.10;99.90;;;;;;5009949;28;20224;-48
2021/12/08 00:29:13;;;;;;;29.97;4.07;;;;;;;;;;5009811;28;20188;-49
2021/12/08 00:31:40;;;;;;;26.37;3.70;;;;;;;;;;5010480;28;20169;-48
2021/12/08 00:34:06;;;;;;;48.73;6.17;;;;;;;;;;5010193;28;20224;-49
2021/12/08 00:36:41;;;;;;;38.30;5.00;;;-0.30;99.90;;;;;;5009908;28;20303;-49
2021/12/08 00:39:07;;;;;;;34.60;4.67;;;-0.20;99.90;;;;;;5009850;28;20319;-49
2021/12/08 00:41:33;;;;;;;37.20;4.87;;;-0.30;99.90;;;;;;4991903;28;20217;-49
2021/12/08 00:43:59;;;;;;;46.23;5.97;;;;;;;;;;5010328;28;20177;-48
2021/12/08 00:46:25;;;;;;;35.03;4.70;;;;;;;;;;5009888;28;20224;-49
2021/12/08 00:48:51;;;;;;;28.23;3.83;;;-0.20;99.90;;;;;;5009553;28;20311;-49
2021/12/08 00:51:17;;;;;;;36.53;4.87;;;;;;;;;;5010090;28;20299;-48
2021/12/08 00:53:43;;;;;;;41.70;5.47;;;;;;;;;;5009389;28;20248;-48
2021/12/08 00:56:09;;;;;;;39.13;5.20;;;;;;;;;;4992254;28;20231;-49
2021/12/08 00:58:35;;;;;;;32.97;4.43;;;-0.40;99.90;;;;;;5010044;28;20224;-49
2021/12/08 01:01:00;;;;;;;40.07;5.17;;;-0.30;99.90;;;;;;5009741;28;20224;-48
2021/12/08 01:03:26;;;;;;;29.90;4.03;;;;;;;;;;5009657;28;20213;-48
2021/12/08 01:05:55;;;;;;;36.77;4.80;;;-0.30;99.90;;;;;;5009742;28;20713;-47
2021/12/08 01:08:24;;;;;;;39.67;5.10;;;-0.40;99.90;;;;;;5009648;28;20212;-48
2021/12/08 01:10:52;;;;;;;35.93;4.70;;;-0.50;99.90;;;;;;5009758;28;20200;-48
2021/12/08 01:13:18;;;;;;;19.87;2.83;;;;;;;;;;5009689;28;20232;-48
2021/12/08 01:15:49;;;;;;;29.20;3.90;;;-0.30;99.90;;;;;;5009466;28;20711;-49
2021/12/08 01:18:16;;;;;;;29.30;3.90;;;0.00;99.90;;;;;;5009598;28;20225;-48
2021/12/08 01:20:42;;;;;;;50.93;6.50;;;-0.30;99.90;;;;;;5009375;28;20641;-49
2021/12/08 01:23:08;;;;;;;37.00;4.83;;;;;;;;;;5010954;28;20188;-48
2021/12/08 01:25:34;;;;;;;32.43;4.30;;;;;;;;;;5013373;28;20224;-48
2021/12/08 01:28:00;;;;;;;14.73;2.30;;;-0.30;99.90;;;;;;5013268;28;20656;-49
2021/12/08 01:30:26;;;;;;;33.60;4.37;;;-0.40;99.90;;;;;;5012879;28;20221;-49
2021/12/08 01:32:53;;;;;;;39.10;5.07;;;;;;;;;;5012759;28;20233;-48
2021/12/08 01:35:20;;;;;;;32.40;4.37;;;;;;;;;;5013045;28;20220;-48
2021/12/08 01:37:45;;;;;;;23.53;3.23;;;-0.10;99.90;;;;;;5013451;28;20633;-49
2021/12/08 01:40:13;;;;;;;12.37;2.03;;;-0.20;99.90;;;;;;5012999;28;20213;-48
2021/12/08 01:42:46;;;;;;;29.90;4.10;;;0.00;99.90;;;;;;5013061;28;20753;-49
2021/12/08 01:48:07;;;;;;;30.10;4.07;;;-0.10;99.90;;;;;;5012988;28;20308;-49
2021/12/08 01:50:34;;;;;;;38.97;5.03;;;;;;;;;;5012477;28;20704;-48
2021/12/08 01:52:59;;;;;;;42.37;5.53;;;;;;;;;;5012889;28;20200;-49
2021/12/08 01:55:25;;;;;;;35.90;4.73;;;;;;;;;;5012663;28;20311;-48
2021/12/08 01:57:51;;;;;;;32.73;4.40;;;;;;;;;;5012443;28;20593;-48
2021/12/08 02:00:32;;;;;;;34.43;4.57;;;-0.20;99.90;;;;;;5012480;28;20741;-48
2021/12/08 02:02:59;;;;;;;43.13;5.60;;;;;;;;;;5012249;28;20220;-49
2021/12/08 02:05:25;;;;;;;28.50;3.87;;;;;;;;;;5012430;28;20223;-48
2021/12/08 02:07:51;;;;;;;39.43;5.23;;;-0.20;99.90;;;;;;5012630;28;20199;-48
2021/12/08 02:10:18;;;;;;;76.67;10.63;;;-0.20;99.90;;;;;;4998892;28;20677;-53
2021/12/08 02:12:44;;;;;;;64.90;9.10;;;-0.40;99.90;;;;;;4992004;28;20268;-53
2021/12/08 02:15:13;;;;;;;101.90;13.67;;;-0.20;99.90;;;;;;4986735;28;20217;-54
2021/12/08 02:17:39;;;;;;;73.30;9.93;;;-0.20;99.90;;;;;;4992314;28;20610;-54
2021/12/08 02:20:09;;;;;;;67.33;9.37;;;-0.10;99.90;;;;;;4995363;28;20272;-53
2021/12/08 02:22:35;;;;;;;69.10;9.70;;;0.10;99.90;;;;;;4990741;28;20627;-54
2021/12/08 02:25:01;;;;;;;56.37;7.87;;;;;;;;;;4992492;28;20217;-54
2021/12/08 02:27:27;;;;;;;98.93;13.77;;;;;;;;;;4987746;28;20316;-54
2021/12/08 02:29:59;;;;;;;100.77;13.67;;;;;;;;;;4984785;28;20323;-53
2021/12/08 02:49:13;;;;;;;45.83;6.47;;;-0.30;99.90;;;;;;4929525;28;20513;-54
2021/12/08 02:51:39;;;;;;;101.37;14.00;;;-0.40;99.90;;;;;;4972960;28;20299;-53
2021/12/08 02:54:05;;;;;;;53.97;7.57;;;-0.30;99.90;;;;;;4991203;28;20217;-53
2021/12/08 02:56:31;;;;;;;74.17;10.23;;;-0.30;99.90;;;;;;4988934;28;20217;-53
2021/12/08 02:58:58;;;;;;;82.97;11.27;;;-0.20;99.90;;;;;;4993213;28;20192;-53
2021/12/08 03:01:25;;;;;;;54.40;7.53;;;-0.30;99.90;;;;;;4987733;28;20248;-53
2021/12/08 03:03:51;;;;;;;47.10;6.60;;;;;;;;;;4988648;28;20213;-53
2021/12/08 03:06:17;;;;;;;98.40;13.97;;;;;;;;;;4992445;28;20482;-54
2021/12/08 03:08:43;;;;;;;97.67;13.50;;;;;;;;;;4993630;28;20607;-53
2021/12/08 03:11:09;;;;;;;89.10;12.40;;;-0.40;99.90;;;;;;4987982;28;20711;-53
2021/12/08 03:13:56;;;;;;;77.50;10.43;;;-0.40;99.90;;;;;;4989819;28;20213;-53
2021/12/08 03:16:22;;;;;;;54.50;7.97;;;;;;;;;;4991885;28;20209;-53
2021/12/08 03:18:48;;;;;;;101.83;14.37;;;;;;;;;;4971734;28;20240;-53
2021/12/08 03:21:14;;;;;;;48.43;6.90;;;;;;;;;;4994895;28;20640;-53
2021/12/08 03:29:46;;;;;;;83.03;11.67;;;-0.40;99.90;;;;;;4980265;28;20279;-53
2021/12/08 03:32:08;;;;;;;76.20;10.50;;;-0.30;99.90;;;;;;4980506;28;20189;-54
2021/12/08 03:34:36;;;;;;;73.30;10.33;;;;;;;;;;4986929;28;20575;-54
2021/12/08 03:37:04;;;;;;;63.53;8.93;;;-0.30;99.90;;;;;;4984250;28;20214;-53
2021/12/08 03:39:30;;;;;;;87.50;11.93;;;;;;;;;;4987009;28;20258;-53
2021/12/08 03:41:56;;;;;;;70.87;9.97;;;;;;;;;;4992817;28;20209;-54
2021/12/08 03:44:22;;;;;;;90.30;12.53;;;;;;;;;;4983897;28;20656;-53
2021/12/08 03:46:50;;;;;;;52.70;7.03;;;;;;;;;;4989201;28;20665;-54
2021/12/08 03:49:18;;;;;;;72.20;10.13;;;-0.30;99.90;;;;;;4984361;28;20571;-54
2021/12/08 03:51:44;;;;;;;85.23;12.17;;;;;;;;;;4983184;28;20218;-53
2021/12/08 03:54:11;;;;;;;65.77;9.27;;;-0.30;99.90;;;;;;4989975;28;20562;-53
2021/12/08 03:56:38;;;;;;;65.30;8.93;;;-0.20;99.90;;;;;;4991176;28;20292;-53
2021/12/08 03:59:06;;;;;;;59.50;8.17;;;-0.30;99.90;;;;;;4994909;28;20250;-53
2021/12/08 04:01:32;;;;;;;44.13;6.30;;;;;;;;;;4971022;28;20305;-53
2021/12/08 04:04:04;;;;;;;66.23;9.13;;;-0.20;99.90;;;;;;4990032;28;20205;-53
2021/12/08 04:06:34;;;;;;;49.60;7.00;;;-0.30;99.90;;;;;;4984993;28;20408;-53
2021/12/08 04:09:04;;;;;;;100.77;13.53;;;;;;;;;;4984744;28;20283;-53
2021/12/08 04:11:30;;;;;;;51.40;7.27;;;-0.30;99.90;;;;;;4993527;28;20216;-53
2021/12/08 04:14:03;;;;;;;98.57;13.37;;;-0.20;99.90;;;;;;4984378;28;20208;-54
2021/12/08 04:16:36;;;;;;;63.57;8.57;;;-0.20;99.90;;;;;;4994117;28;20693;-53
2021/12/08 04:19:08;;;;;;;123.90;16.80;;;-0.20;99.90;;;;;;4985034;28;20717;-54
2021/12/08 04:21:35;;;;;;;48.67;6.73;;;-0.20;99.90;;;;;;4988296;28;20763;-53
2021/12/08 04:24:01;;;;;;;113.73;15.33;;;-0.10;99.90;;;;;;4983953;28;20259;-53
2021/12/08 04:26:36;;;;;;;84.93;11.80;;;-0.20;99.90;;;;;;4990083;28;20228;-54
2021/12/08 04:29:05;;;;;;;89.90;12.63;;;-0.20;99.90;;;;;;4988048;28;20279;-54
2021/12/08 04:31:34;;;;;;;59.87;8.43;;;-0.20;99.90;;;;;;4964672;28;20471;-53
2021/12/08 04:34:06;;;;;;;81.70;11.27;;;-0.10;99.90;;;;;;4990301;28;20223;-53
2021/12/08 04:36:41;;;;;;;107.53;14.87;;;-0.20;99.90;;;;;;4988115;28;20547;-53
2021/12/08 04:39:14;;;;;;;30.30;4.70;;;-0.20;99.90;;;;;;4985787;28;20208;-54
2021/12/08 04:41:45;;;;;;;46.93;6.57;;;;;;;;;;4994302;28;20220;-53
2021/12/08 04:44:39;;;;;;;86.60;12.13;;;;;;;;;;4986904;28;20501;-54
2021/12/08 04:50:19;;;;;;;119.20;16.10;;;-0.20;99.90;;;;;;4989373;28;20232;-54
2021/12/08 04:52:51;;;;;;;65.33;9.23;;;;;;;;;;4980081;28;20685;-54
2021/12/08 05:04:02;;;;;;;121.73;16.80;;;-0.20;99.90;;;;;;4989032;28;20224;-53
2021/12/08 05:06:48;;;;;;;89.63;12.60;;;-0.30;99.90;;;;;;4993848;28;20225;-53
2021/12/08 05:09:26;;;;;;;93.27;12.40;;;-0.20;99.90;;;;;;4995249;28;20763;-54
2021/12/08 05:12:10;;;;;;;76.37;10.67;;;-0.30;99.90;;;;;;4998342;28;20693;-53
2021/12/08 05:14:46;;;;;;;115.83;15.47;;;-0.20;99.90;;;;;;4989199;28;20610;-54
2021/12/08 05:17:18;;;;;;;87.83;11.87;;;-0.20;99.90;;;;;;4984981;28;20566;-55
2021/12/08 05:19:48;;;;;;;76.60;10.53;;;-0.20;99.90;;;;;;4986886;28;20557;-53
2021/12/08 05:22:33;;;;;;;61.40;8.43;;;-0.10;99.90;;;;;;4987734;28;20316;-54
2021/12/08 05:25:02;;;;;;;79.00;10.80;;;-0.20;99.90;;;;;;4993093;28;20581;-54
2021/12/08 05:27:33;;;;;;;84.10;11.23;;;-0.10;99.90;;;;;;4990774;28;20623;-54
2021/12/08 05:30:16;;;;;;;37.23;5.57;;;-0.10;99.90;;;;;;4989904;28;20223;-54
2021/12/08 05:32:42;;;;;;;96.03;12.93;;;;;;;;;;4988300;28;20271;-54
2021/12/08 05:35:12;;;;;;;81.23;11.20;;;-0.10;99.90;;;;;;4993766;28;20228;-53
2021/12/08 05:37:38;;;;;;;64.10;8.87;;;;;;;;;;4993550;28;20276;-53
2021/12/08 05:40:09;;;;;;;81.37;11.13;;;-0.10;99.90;;;;;;4992365;28;20491;-54
2021/12/08 05:42:35;;;;;;;89.47;12.13;;;-0.10;99.90;;;;;;4994740;28;20681;-53
2021/12/08 05:45:06;;;;;;;62.33;8.77;;;-0.10;99.90;;;;;;4987871;28;20543;-54
2021/12/08 05:47:32;;;;;;;68.23;9.50;;;;;;;;;;4993301;28;20227;-54
2021/12/08 05:49:59;;;;;;;107.60;14.57;;;-0.10;99.90;;;;;;4994728;28;20227;-54
2021/12/08 05:52:25;;;;;;;75.27;10.07;;;;;;;;;;4989162;28;20213;-54
2021/12/08 05:54:51;;;;;;;90.63;12.23;;;-0.10;99.90;;;;;;4986835;28;20250;-54
2021/12/08 05:57:29;;;;;;;67.60;9.17;;;-0.10;99.90;;;;;;4993488;28;20209;-54
2021/12/08 05:59:56;;;;;;;99.07;13.63;;;-0.10;99.90;;;;;;4988038;28;20768;-54
2021/12/08 06:02:26;;;;;;;53.50;7.20;;;-0.10;99.90;;;;;;4992506;28;20240;-53
2021/12/08 06:04:52;;;;;;;68.07;9.23;;;0.40;99.90;;;;;;4992563;28;20222;-54
2021/12/08 06:07:22;;;;;;;107.23;14.17;;;;;;;;;;4986154;28;20217;-53
2021/12/08 06:09:58;;;;;;;104.70;14.30;;;-0.10;99.90;;;;;;4992158;28;20874;-54
2021/12/08 06:12:25;;;;;;;118.43;15.93;;;;;;;;;;4984231;28;20997;-54
2021/12/08 06:14:55;;;;;;;85.20;11.47;;;;;;;;;;4989981;28;20227;-53
2021/12/08 06:17:26;;;;;;;65.47;8.83;;;0.00;99.90;;;;;;4990546;28;20220;-53
2021/12/08 06:19:52;;;;;;;63.63;8.70;;;-0.20;99.90;;;;;;4986702;28;20185;-53
2021/12/08 06:22:20;;;;;;;58.20;7.93;;;-0.50;99.90;;;;;;4988911;28;20216;-53
2021/12/08 06:24:46;;;;;;;113.70;15.13;;;-0.10;99.90;;;;;;4987451;28;20603;-54
2021/12/08 06:27:12;;;;;;;99.73;13.37;;;-0.10;99.90;;;;;;4991439;28;20229;-52
2021/12/08 06:29:39;;;;;;;77.83;10.77;;;-0.10;99.90;;;;;;4995013;28;20292;-53
2021/12/08 06:32:08;;;;;;;82.83;11.23;;;-0.10;99.90;;;;;;4993017;28;20182;-53
2021/12/08 06:34:35;;;;;;;55.57;7.60;;;;;;;;;;4991749;28;20728;-53
2021/12/08 06:37:13;;;;;;;84.80;11.13;;;-0.10;99.90;;;;;;4990644;28;20213;-53
2021/12/08 06:39:46;;;;;;;95.53;12.83;;;-0.10;99.90;;;;;;4988349;28;20215;-53
2021/12/08 06:42:17;;;;;;;68.10;9.30;;;-0.10;99.90;;;;;;4989061;28;20684;-52
2021/12/08 06:44:47;;;;;;;66.33;9.33;;;-0.40;99.90;;;;;;4984909;28;20461;-53
2021/12/08 06:47:17;;;;;;;127.80;17.17;;;0.10;99.90;;;;;;4981585;28;20670;-53
2021/12/08 06:49:45;;;;;;;47.57;7.00;;;0.00;99.90;;;;;;4997605;28;20192;-53
2021/12/08 06:52:16;;;;;;;54.23;7.60;;;-0.10;99.90;;;;;;4990647;28;20308;-50
2021/12/08 06:54:46;;;;;;;87.57;11.87;;;-0.10;99.90;;;;;;4990323;28;20225;-50
2021/12/08 06:57:33;;;;;;;84.67;11.47;;;-0.10;99.90;;;;;;4996512;28;20243;-50
2021/12/08 07:00:17;;;;;;;55.47;7.93;;;0.00;99.90;;;;;;4994905;28;20297;-50
2021/12/08 07:05:26;;;;;;;88.80;12.37;;;;;;;;;;4973217;28;20316;-50
2021/12/08 07:07:56;;;;;;;53.53;7.33;;;-0.10;99.90;;;;;;4991508;28;20222;-50
2021/12/08 07:10:28;;;;;;;86.63;11.63;;;0.10;99.90;;;;;;4984012;28;20219;-50
2021/12/08 07:13:02;;;;;;;89.77;11.83;;;3.40;99.90;;;;;;4986592;28;20212;-49
2021/12/08 07:15:47;;;;;;;53.17;7.53;;;0.00;99.90;;;;;;4994236;28;20562;-50
2021/12/08 07:18:39;;;;;;;114.53;15.20;;;-0.10;99.90;;;;;;4984645;28;20216;-50
2021/12/08 07:21:07;;;;;;;66.77;9.03;;;-0.10;99.90;;;;;;4988056;28;20233;-50
2021/12/08 07:23:52;;;;;;;93.83;12.77;;;0.00;99.90;;;;;;4987737;28;20228;-50
2021/12/08 07:26:23;;;;;;;120.20;16.27;;;-0.20;99.90;;;;;;4983012;28;20307;-49
2021/12/08 07:28:50;;;;;;;92.87;12.83;;;;;;;;;;4977105;28;20300;-50
2021/12/08 07:31:30;;;;;;;64.13;8.63;;;0.00;99.90;;;;;;4990573;28;20704;-49
2021/12/08 07:34:03;;;;;;;82.03;10.90;;;;;;;;;;4984565;28;20470;-50
2021/12/08 07:36:29;;;;;;;132.30;18.17;;;;;;;;;;4984086;28;20278;-49
2021/12/08 07:38:56;;;;;;;94.17;12.73;;;0.10;99.90;;;;;;4977824;28;20287;-50
2021/12/08 07:41:35;;;;;;;85.13;11.53;;;0.00;99.90;;;;;;4981334;28;20757;-49
2021/12/08 07:44:07;;;;;;;64.20;8.80;;;0.10;99.90;;;;;;4990200;28;20193;-50
2021/12/08 07:46:55;;;;;;;94.50;12.97;;;0.10;99.90;;;;;;4981697;28;20225;-50
2021/12/08 07:49:30;;;;;;;106.40;14.43;;;0.10;99.90;;;;;;4979131;28;20312;-50
2021/12/08 07:52:08;;;;;;;123.93;16.83;;;0.20;99.90;;;;;;4980107;28;20239;-49
2021/12/08 07:54:34;;;;;;;84.53;11.90;;;;;;;;;;4976995;28;20229;-49
2021/12/08 07:57:06;;;;;;;64.90;8.73;;;0.20;99.90;;;;;;4989884;28;20225;-49
2021/12/08 07:59:32;;;;;;;147.60;19.27;;;;;;;;;;4973000;28;20689;-49
2021/12/08 08:02:06;;;;;;;60.47;8.13;;;0.30;99.90;;;;;;4984763;28;20192;-49
2021/12/08 08:04:33;;;;;;;83.67;11.33;;;;;;;;;;4986165;28;20409;-50
2021/12/08 08:07:00;;;;;;;78.63;10.73;;;0.50;99.90;;;;;;4984851;28;20220;-49
2021/12/08 08:09:29;;;;;;;100.43;13.77;;;0.00;99.90;;;;;;4985888;28;20221;-49
2021/12/08 08:12:00;;;;;;;65.37;8.87;;;0.40;99.90;;;;;;4989800;28;20287;-49
2021/12/08 08:14:31;;;;;;;99.57;13.47;;;0.40;99.90;;;;;;4986533;28;20588;-49
2021/12/08 08:16:58;;;;;;;92.43;12.57;;;;;;;;;;4984439;28;21690;-50
2021/12/08 08:19:29;;;;;;;65.70;8.57;;;0.40;99.90;;;;;;4978640;28;20217;-50
2021/12/08 08:22:00;;;;;;;113.27;14.83;;;0.40;99.90;;;;;;4988338;28;20221;-50
2021/12/08 08:24:26;;;;;;;159.30;21.20;;;1.30;99.90;;;;;;4970842;28;23125;-49
2021/12/08 08:26:55;;;;;;;127.23;16.93;;;0.30;99.90;;;;;;4974932;28;22935;-50
2021/12/08 08:29:21;;;;;;;128.37;16.57;;;;;;;;;;4987185;28;20221;-51
2021/12/08 08:31:59;;;;;;;40.43;5.30;;;0.20;99.90;;;;;;4972078;28;20588;-50
2021/12/08 08:34:26;;;;;;;108.53;14.00;;;0.40;99.90;;;;;;4991540;28;20226;-51
2021/12/08 08:36:52;;;;;;;108.83;14.67;;;;;;;;;;4991486;28;20244;-49
2021/12/08 08:39:20;;;;;;;66.27;8.83;;;;;;;;;;4993413;28;20713;-50
2021/12/08 08:42:16;;;;;;;90.70;12.27;;;0.50;99.90;;;;;;4990932;28;20656;-51
2021/12/08 08:45:04;;;;;;;122.60;16.03;;;0.40;99.90;;;;;;4985087;28;20266;-49
2021/12/08 08:47:40;;;;;;;65.73;9.03;;;0.40;99.90;;;;;;4995626;28;20296;-50
2021/12/08 08:50:12;;;;;;;81.90;10.73;;;1.50;99.90;;;;;;4989433;28;20172;-50
2021/12/08 08:52:43;;;;;;;158.33;21.13;;;3.60;99.90;;;;;;4978650;28;20216;-51
2021/12/08 08:55:18;;;;;;;63.00;8.67;;;3.10;99.90;;;;;;4982129;28;20560;-50
2021/12/08 08:57:45;;;;;;;78.37;11.20;;;1.70;99.90;;;;;;4991585;28;20220;-49
2021/12/08 09:00:14;;;;;;;50.30;7.00;;;1.90;99.90;;;;;;4996046;28;20331;-50
2021/12/08 09:02:40;;;;;;;167.10;23.57;;;;;;;;;;4993152;28;20220;-50
2021/12/08 09:05:15;;;;;;;74.47;10.17;;;1.50;99.90;;;;;;4993675;28;20244;-50
2021/12/08 09:07:48;;;;;;;100.57;13.83;;;1.30;99.90;;;;;;4992298;28;20490;-50
2021/12/08 09:10:28;;;;;;;79.13;10.87;;;4.50;99.90;;;;;;4986456;28;20244;-50
2021/12/08 09:12:59;;;;;;;78.87;10.87;;;1.00;99.90;;;;;;4997348;28;20791;-50
2021/12/08 09:15:39;;;;;;;74.83;10.27;;;1.00;99.90;;;;;;4994160;28;20220;-50
2021/12/08 09:18:18;;;;;;;63.27;8.83;;;0.90;99.90;;;;;;4993498;28;20263;-49
2021/12/08 09:20:58;;;;;;;98.53;13.10;;;0.90;99.90;;;;;;4996885;28;20245;-50
2021/12/08 09:23:35;;;;;;;51.30;7.10;;;1.00;99.90;;;;;;4993747;28;20239;-50
2021/12/08 09:26:08;;;;;;;75.33;10.03;;;1.00;99.90;;;;;;5000654;28;20200;-50
2021/12/08 09:28:41;;;;;;;72.13;9.20;;;;;;;;;;4969496;28;20468;-50
2021/12/08 09:31:23;;;;;;;62.83;8.17;;;1.00;99.90;;;;;;4989945;28;20217;-50
2021/12/08 09:33:55;;;;;;;63.80;8.47;;;;;;;;;;4991770;28;20221;-50
2021/12/08 09:36:29;;;;;;;183.87;23.30;;;1.00;99.90;;;;;;4987240;28;20279;-50
2021/12/08 09:39:00;;;;;;;67.87;8.73;;;1.00;99.90;;;;;;4990389;28;20213;-51
2021/12/08 09:41:44;;;;;;;71.87;9.60;;;1.10;99.90;;;;;;4995240;28;20240;-50
2021/12/08 09:44:15;;;;;;;98.83;12.73;;;;;;;;;;4996710;28;20188;-50
2021/12/08 09:46:44;;;;;;;144.07;18.23;;;1.10;99.90;;;;;;4992179;28;20203;-50
2021/12/08 09:49:12;;;;;;;58.83;7.87;;;1.10;99.90;;;;;;4995113;28;20224;-50
2021/12/08 09:51:39;;;;;;;77.37;10.13;;;;;;;;;;4991732;28;20225;-50
2021/12/08 09:54:05;;;;;;;144.97;18.37;;;;;;;;;;4984284;28;20239;-50
2021/12/08 09:56:33;;;;;;;121.63;15.53;;;;;;;;;;4994949;28;20582;-49
2021/12/08 09:59:00;;;;;;;85.30;10.80;;;;;;;;;;4995860;28;20197;-49
2021/12/08 10:01:26;;;;;;;53.53;7.30;;;;;;;;;;4998380;28;20243;-50
2021/12/08 10:03:54;;;;;;;46.73;6.60;;;1.10;99.90;;;;;;4996834;28;20628;-50
2021/12/08 10:06:21;;;;;;;105.70;14.20;;;0.80;99.90;;;;;;4993838;28;20685;-49
2021/12/08 10:08:48;;;;;;;61.60;8.27;;;1.10;99.90;;;;;;4995106;28;20221;-50
2021/12/08 10:11:15;;;;;;;69.23;9.20;;;;;;;;;;4994603;28;20742;-50
2021/12/08 10:13:41;;;;;;;47.27;6.53;;;;;;;;;;4993443;28;20321;-50
2021/12/08 10:16:08;;;;;;;73.83;9.77;;;1.10;99.90;;;;;;4992938;28;20233;-50
2021/12/08 10:18:35;;;;;;;54.33;7.40;;;1.30;99.90;;;;;;4994679;28;20715;-50
2021/12/08 10:21:01;;;;;;;88.57;11.73;;;;;;;;;;4995103;28;20296;-50
2021/12/08 10:23:28;;;;;;;65.83;8.57;;;;;;;;;;4989223;28;20219;-51
2021/12/08 10:25:56;;;;;;;49.23;6.67;;;1.10;99.90;;;;;;4998695;28;20212;-50
2021/12/08 10:28:31;;;;;;;34.87;4.87;;;1.10;99.90;;;;;;4996375;28;20423;-49
2021/12/08 10:31:01;;;;;;;56.33;7.77;;;1.30;99.90;;;;;;4995471;28;20299;-49
2021/12/08 10:34:21;;;;;;;62.53;8.43;;;1.10;99.90;;;;;;4996789;28;20566;-50
2021/12/08 10:36:54;;;;;;;60.60;8.20;;;1.20;99.90;;;;;;4989139;28;20243;-51
2021/12/08 10:39:20;;;;;;;108.80;14.50;;;;;;;;;;4988089;28;20549;-50
2021/12/08 10:42:07;;;;;;;136.93;18.20;;;1.30;99.90;;;;;;4986896;28;20217;-50
2021/12/08 10:44:56;;;;;;;65.53;8.80;;;1.30;99.90;;;;;;4978414;28;20577;-51
2021/12/08 10:47:25;;;;;;;73.57;10.00;;;1.40;99.90;;;;;;4989519;28;20217;-51
2021/12/08 10:55:06;;;;;;;96.87;12.60;;;;;;;;;;4991858;28;20227;-49
2021/12/08 10:57:35;;;;;;;88.77;11.47;;;1.50;99.90;;;;;;4993468;28;20221;-49
2021/12/08 11:00:18;;;;;;;67.53;9.30;;;1.40;99.90;;;;;;4990706;28;20229;-50
2021/12/08 11:02:44;;;;;;;78.53;10.60;;;;;;;;;;4987481;28;20225;-49
2021/12/08 11:05:24;;;;;;;51.30;7.43;;;1.60;99.90;;;;;;4992371;28;20216;-49
2021/12/08 11:08:10;;;;;;;94.20;12.67;;;1.30;99.90;;;;;;4981447;28;20189;-49
2021/12/08 11:10:44;;;;;;;78.47;10.43;;;1.30;99.90;;;;;;4989051;28;20224;-49
2021/12/08 11:13:11;;;;;;;158.53;21.20;;;1.40;99.90;;;;;;4984116;28;20686;-48
2021/12/08 11:15:39;;;;;;;74.00;9.93;;;;;;;;;;4991846;28;20344;-49
2021/12/08 11:18:22;;;;;;;106.63;14.00;;;1.50;99.90;;;;;;4987217;28;20213;-50
2021/12/08 11:20:54;;;;;;;103.87;13.77;;;1.40;99.90;;;;;;4984498;28;20223;-50
2021/12/08 11:23:40;;;;;;;85.47;11.07;;;1.50;99.90;;;;;;4988187;28;20270;-49
2021/12/08 11:26:10;;;;;;;138.53;17.63;;;1.40;99.90;;;;;;4987368;28;20212;-49
2021/12/08 11:28:36;;;;;;;96.00;12.50;;;1.50;99.90;;;;;;4980712;28;20325;-49
2021/12/08 11:31:14;;;;;;;135.67;17.30;;;1.50;99.90;;;;;;4983418;28;20676;-50
2021/12/08 11:33:44;;;;;;;89.73;11.80;;;1.50;99.90;;;;;;4985139;28;20224;-49
2021/12/08 11:36:19;;;;;;;109.43;14.47;;;1.50;99.90;;;;;;4987843;28;20210;-54
2021/12/08 11:38:46;;;;;;;67.07;8.87;;;;;;;;;;4989647;28;20235;-53
2021/12/08 11:41:37;;;;;;;111.50;14.67;;;1.50;99.90;;;;;;4985568;28;20213;-54
2021/12/08 11:44:34;;;;;;;84.50;11.17;;;1.50;99.90;;;;;;4990818;28;20185;-55
2021/12/08 11:47:07;;;;;;;92.40;12.53;;;1.50;99.90;;;;;;4964372;28;20232;-54
2021/12/08 11:49:39;;;;;;;93.27;12.30;;;1.60;99.90;;;;;;4986888;28;20186;-55
2021/12/08 11:52:09;;;;;;;73.23;9.73;;;;;;;;;;4998718;28;20674;-54
2021/12/08 11:54:51;;;;;;;63.67;8.50;;;1.60;99.90;;;;;;4994875;28;20256;-55
2021/12/08 11:57:22;;;;;;;47.27;6.33;;;1.60;99.90;;;;;;4991929;28;20735;-54
2021/12/08 11:59:57;;;;;;;75.47;10.17;;;1.60;99.90;;;;;;4989222;28;20221;-54
2021/12/08 12:02:26;;;;;;;73.93;9.37;;;1.20;99.90;;;;;;4994450;28;20281;-55
2021/12/08 12:04:52;;;;;;;104.87;13.77;;;;;;;;;;4994703;28;20208;-55
2021/12/08 12:07:18;;;;;;;172.63;22.43;;;1.50;99.90;;;;;;4987939;28;21979;-55
2021/12/08 12:09:44;;;;;;;76.17;10.10;;;;;;;;;;4980264;28;20308;-54
2021/12/08 12:12:11;;;;;;;66.03;8.93;;;1.80;99.90;;;;;;4994514;28;20216;-54
2021/12/08 12:14:37;;;;;;;84.27;11.23;;;;;;;;;;4986944;28;20274;-54
2021/12/08 12:17:03;;;;;;;99.77;13.27;;;0.40;99.90;;;;;;4986020;28;20317;-54
2021/12/08 12:19:36;;;;;;;76.63;10.10;;;1.50;99.90;;;;;;4973467;28;20255;-54
2021/12/08 12:22:53;;;;;;;108.10;14.37;;;1.60;99.90;;;;;;4985574;28;20696;-54
2021/12/08 12:25:43;;;;;;;78.40;10.67;;;1.70;99.90;;;;;;4960125;28;20240;-54
2021/12/08 12:28:26;;;;;;;75.57;10.57;;;1.90;99.90;;;;;;4990976;28;20220;-54
2021/12/08 12:31:05;;;;;;;80.13;10.67;;;1.50;99.90;;;;;;4981822;28;20663;-54
2021/12/08 12:33:40;;;;;;;104.47;14.13;;;1.60;99.90;;;;;;4987226;28;20224;-54
2021/12/08 12:36:24;;;;;;;180.23;24.93;;;1.70;99.90;;;;;;4986577;28;20247;-54
2021/12/08 12:38:51;;;;;;;99.20;13.23;;;1.70;99.90;;;;;;4986527;28;20961;-54
2021/12/08 12:41:29;;;;;;;83.83;11.57;;;1.60;99.90;;;;;;4988184;28;20177;-54
2021/12/08 12:44:20;;;;;;;121.20;16.10;;;1.70;99.90;;;;;;4990616;28;20190;-54
2021/12/08 12:47:04;;;;;;;83.57;11.47;;;1.40;99.90;;;;;;4974810;28;20562;-54
2021/12/08 12:49:30;;;;;;;46.07;6.50;;;;;;;;;;4987079;28;20206;-54
2021/12/08 12:51:57;;;;;;;91.53;12.23;;;1.40;99.90;;;;;;4973953;28;20260;-54
2021/12/08 12:54:25;;;;;;;76.60;10.20;;;1.40;99.90;;;;;;4988839;28;20593;-55
2021/12/08 12:56:52;;;;;;;64.93;9.00;;;1.40;99.90;;;;;;4983670;28;20323;-55
2021/12/08 12:59:21;;;;;;;64.20;9.00;;;1.50;99.90;;;;;;4989795;28;20597;-54
2021/12/08 13:02:10;;;;;;;128.83;16.83;;;1.40;99.90;;;;;;4994570;28;20280;-54
2021/12/08 13:04:56;;;;;;;73.27;9.93;;;1.30;99.90;;;;;;4995116;28;20225;-54
2021/12/08 13:07:22;;;;;;;102.83;13.70;;;1.10;99.90;;;;;;4989920;28;20262;-54
2021/12/08 13:09:52;;;;;;;68.23;8.80;;;1.30;99.90;;;;;;4994504;28;20242;-54
2021/12/08 13:12:24;;;;;;;93.50;12.30;;;1.20;99.90;;;;;;4990724;28;20619;-55
2021/12/08 13:15:11;;;;;;;114.53;14.93;;;1.30;99.90;;;;;;4991370;28;20236;-52
2021/12/08 13:17:37;;;;;;;86.53;11.50;;;;;;;;;;4987831;28;20205;-52
2021/12/08 13:20:10;;;;;;;97.23;12.67;;;1.20;99.90;;;;;;4999594;28;20193;-53
2021/12/08 13:22:58;;;;;;;95.87;12.67;;;1.10;99.90;;;;;;4995255;28;20355;-53
2021/12/08 13:25:24;;;;;;;92.40;12.20;;;;;;;;;;4997039;28;20221;-53
2021/12/08 13:28:06;;;;;;;101.53;13.53;;;1.30;99.90;;;;;;4989084;28;20236;-53
2021/12/08 13:30:32;;;;;;;95.00;12.23;;;;;;;;;;4993329;28;20225;-53
2021/12/08 13:33:08;;;;;;;115.57;15.17;;;;;;;;;;4996069;28;20217;-53
2021/12/08 13:35:36;;;;;;;85.20;11.30;;;1.20;99.90;;;;;;5000311;28;20216;-53
2021/12/08 13:38:04;;;;;;;109.33;14.30;;;2.00;99.90;;;;;;4995662;28;20181;-53
2021/12/08 13:40:53;;;;;;;127.57;16.77;;;1.20;99.90;;;;;;4987988;28;20717;-53
2021/12/08 13:43:32;;;;;;;69.33;9.20;;;1.20;99.90;;;;;;4995127;28;20279;-53
2021/12/08 13:45:58;;;;;;;94.70;12.67;;;;;;;;;;4989396;28;20336;-53
2021/12/08 13:48:24;;;;;;;99.27;13.03;;;;;;;;;;4986988;28;20220;-54
2021/12/08 13:50:50;;;;;;;119.43;15.80;;;;;;;;;;4982950;28;20209;-53
2021/12/08 13:53:16;;;;;;;143.53;18.90;;;;;;;;;;4980253;28;20200;-53
2021/12/08 13:55:48;;;;;;;54.77;7.87;;;1.30;99.90;;;;;;4994192;28;20204;-53
2021/12/08 13:58:19;;;;;;;50.57;7.40;;;1.00;99.90;;;;;;4999138;28;20440;-53
2021/12/08 14:00:45;;;;;;;78.97;10.80;;;;;;;;;;4998330;28;20217;-53
2021/12/08 14:03:15;;;;;;;75.93;10.67;;;1.00;99.90;;;;;;4988975;28;20235;-54
2021/12/08 14:05:47;;;;;;;75.20;10.13;;;1.00;99.90;;;;;;4996300;28;21190;-53
2021/12/08 14:08:18;;;;;;;120.23;16.57;;;0.90;99.90;;;;;;4982160;28;20924;-53
2021/12/08 14:10:47;;;;;;;91.10;12.03;;;0.80;99.90;;;;;;4997814;28;20319;-53
2021/12/08 14:13:15;;;;;;;64.23;9.03;;;0.70;99.90;;;;;;4994021;28;20220;-53
2021/12/08 14:15:41;;;;;;;73.83;9.90;;;;;;;;;;4996135;28;20716;-53